»·PEaware :: N3021C KAJO-KVCV

N3021C :: KAJO-KVCV

FLIGHT INFORMATION

Flight Status: Arrived
Operator: Privately registered:
United States
More flights under this callsign
Pilot: Mark B. (9455)
Aircraft: CESSNA 172 SKYHAWK
(C172)
More flights by this aircraft type
Origin: KAJO Corona Mun
United States
Destination: KVCV Socal Logistics
United States
More flights between these airports :: More routes between these airports
Route: +PDZ V442 APLES
File this flight plan on PilotEdge
Remarks: I-11 rating
Altitude:
(Current/Filed)
9,000ft
Speed:
(Current/Filed)
115kts
Departed: 18-Jul-17 04:40 PM
Arrived: 18-Jul-17 05:42 PM
Distance/Time
Traveled:
43nm/1:02
Distance/Time
To Go:
Arrived

Flight Plot

Page will automatically refresh every two minutes.


Map Options




Map Legend


Flown Route
Filed Route
Departure Airport
Arrival Airport
Navaid (VOR, NDB)
Fix

Horizontal Profiles

Position Reports

Time Latitude Longitude Heading Altitude Ground
Speed
18-Jul-17 16:30 33.896980 -117.601768 360 537ft 0kts
18-Jul-17 16:31 33.896980 -117.601768 360 537ft 0kts
18-Jul-17 16:32 33.896980 -117.601768 360 537ft 0kts
18-Jul-17 16:33 33.896980 -117.601768 360 537ft 0kts
18-Jul-17 16:34 33.896980 -117.601768 360 537ft 0kts
18-Jul-17 16:35 33.896980 -117.601768 360 537ft 0kts
18-Jul-17 16:36 33.896980 -117.601768 360 537ft 0kts
18-Jul-17 16:37 33.896980 -117.601768 360 537ft 0kts
18-Jul-17 16:38 33.896980 -117.601768 360 537ft 0kts
18-Jul-17 16:39 33.896980 -117.601768 360 537ft 0kts
18-Jul-17 16:40 33.896980 -117.601768 360 537ft 0kts
18-Jul-17 16:41 33.896980 -117.601768 360 537ft 0kts
18-Jul-17 16:42 33.897129 -117.601234 75 537ft 16kts
18-Jul-17 16:43 33.897694 -117.605194 268 669ft 77kts
18-Jul-17 16:44 33.903481 -117.627615 350 1762ft 80kts
18-Jul-17 16:45 33.909291 -117.605600 81 2827ft 78kts
18-Jul-17 16:46 33.912911 -117.579540 82 3822ft 80kts
18-Jul-17 16:47 33.916194 -117.552750 84 4762ft 82kts
18-Jul-17 16:48 33.921959 -117.526593 49 5664ft 83kts
18-Jul-17 16:49 33.938874 -117.507624 45 6531ft 81kts
18-Jul-17 16:50 33.945184 -117.515323 187 7263ft 88kts
18-Jul-17 16:51 33.922786 -117.524608 218 8006ft 91kts
18-Jul-17 16:52 33.922574 -117.546053 3 8698ft 93kts
18-Jul-17 16:53 33.943941 -117.524151 43 9032ft 108kts
18-Jul-17 16:54 33.967123 -117.499614 33 8998ft 114kts
18-Jul-17 16:55 33.995051 -117.482681 25 8993ft 114kts
18-Jul-17 16:56 34.024147 -117.468146 23 8965ft 114kts
18-Jul-17 16:57 34.051570 -117.450995 27 9013ft 111kts
18-Jul-17 16:58 34.079381 -117.433885 26 9003ft 113kts
18-Jul-17 16:59 34.107178 -117.416686 26 8991ft 114kts
18-Jul-17 17:00 34.135484 -117.399996 23 9017ft 112kts
18-Jul-17 17:01 34.164260 -117.385227 23 8995ft 114kts
18-Jul-17 17:02 34.191704 -117.367521 30 9033ft 111kts
18-Jul-17 17:03 34.219629 -117.350957 27 9021ft 113kts
18-Jul-17 17:04 34.247609 -117.333448 28 9003ft 113kts
18-Jul-17 17:05 34.274328 -117.313748 30 8989ft 114kts
18-Jul-17 17:06 34.301919 -117.295648 22 8987ft 114kts
18-Jul-17 17:07 34.329560 -117.277789 29 9030ft 110kts
18-Jul-17 17:08 34.356731 -117.258827 29 8983ft 114kts
18-Jul-17 17:09 34.384950 -117.241476 24 8957ft 114kts
18-Jul-17 17:10 34.413728 -117.226885 18 8949ft 116kts
18-Jul-17 17:11 34.442369 -117.211599 29 8998ft 111kts
18-Jul-17 17:12 34.470166 -117.194660 23 9008ft 113kts
18-Jul-17 17:13 34.498585 -117.178683 23 9026ft 111kts
18-Jul-17 17:14 34.527148 -117.162379 24 8973ft 114kts
18-Jul-17 17:15 34.556077 -117.147645 19 8900ft 120kts
18-Jul-17 17:16 34.591589 -117.140038 3 8104ft 135kts
18-Jul-17 17:17 34.628730 -117.145220 349 7270ft 135kts
18-Jul-17 17:18 34.663511 -117.155453 336 6797ft 128kts
18-Jul-17 17:19 34.693835 -117.174108 328 6633ft 118kts
18-Jul-17 17:20 34.720606 -117.195776 315 6667ft 115kts
18-Jul-17 17:21 34.742998 -117.223853 314 6647ft 118kts
18-Jul-17 17:22 34.764065 -117.253859 305 6648ft 116kts
18-Jul-17 17:23 34.779321 -117.288860 293 6582ft 119kts
18-Jul-17 17:24 34.792904 -117.327887 284 6075ft 132kts
18-Jul-17 17:25 34.792137 -117.371281 226 5323ft 134kts
18-Jul-17 17:26 34.755171 -117.378972 183 4416ft 129kts
18-Jul-17 17:27 34.721638 -117.379488 181 4405ft 116kts
18-Jul-17 17:28 34.688584 -117.380865 183 4204ft 127kts
18-Jul-17 17:29 34.651307 -117.383083 182 3271ft 136kts
18-Jul-17 17:30 34.617908 -117.387108 184 3546ft 103kts
18-Jul-17 17:31 34.602381 -117.405127 268 4690ft 76kts
18-Jul-17 17:32 34.604621 -117.435318 277 5456ft 93kts
18-Jul-17 17:33 34.609342 -117.468000 282 6067ft 108kts
18-Jul-17 17:34 34.616389 -117.504109 280 6022ft 102kts
18-Jul-17 17:35 34.621098 -117.537974 246 6118ft 99kts
18-Jul-17 17:36 34.607277 -117.520952 102 6185ft 103kts
18-Jul-17 17:37 34.605730 -117.508856 94 6219ft 102kts
18-Jul-17 17:38 34.605730 -117.508856 94 6219ft 102kts
18-Jul-17 17:39 34.603106 -117.487833 109 6244ft 104kts
18-Jul-17 17:40 34.593930 -117.449729 101 5585ft 133kts
18-Jul-17 17:41 34.599216 -117.406759 11 4148ft 122kts
18-Jul-17 17:42 34.632033 -117.406506 2 3955ft 106kts
18-Jul-17 17:43 34.637823 -117.386718 169 3945ft 98kts
18-Jul-17 17:44 34.613555 -117.386722 179 2902ft 84kts
18-Jul-17 17:45 34.601541 -117.386627 178 2888ft 23kts
18-Jul-17 17:46 34.595459 -117.386486 164 2888ft 22kts

Navigation Log

Ident Type
Flight plan parsing failed, navigation log unavailable